createdAt,value
2022-12-10T00:01:35.122Z,98.57
2022-12-10T00:04:04.110Z,98.14
2022-12-10T00:06:34.835Z,98.49
2022-12-10T00:09:02.736Z,98.74
2022-12-10T00:11:29.468Z,98.81
2022-12-10T00:13:56.331Z,98.34
2022-12-10T00:16:24.970Z,98.56
2022-12-10T00:18:52.121Z,98.58
2022-12-10T00:21:22.408Z,98.84
2022-12-10T00:23:49.834Z,98.54
2022-12-10T00:26:19.217Z,98.24
2022-12-10T00:28:47.125Z,98.64
2022-12-10T00:31:19.166Z,98.21
2022-12-10T00:33:46.521Z,98.51
2022-12-10T00:36:18.855Z,98.69
2022-12-10T00:38:45.802Z,98.69
2022-12-10T00:41:13.432Z,98.76
2022-12-10T00:43:40.846Z,98.21
2022-12-10T00:46:07.773Z,98.33
2022-12-10T00:48:34.437Z,99.12
2022-12-10T00:51:03.507Z,98.74
2022-12-10T00:53:31.670Z,98.55
2022-12-10T00:55:59.013Z,98.91
2022-12-10T00:58:29.598Z,98.67
2022-12-10T01:01:09.804Z,99.29
2022-12-10T01:03:37.508Z,99.28
2022-12-10T01:06:13.277Z,98.98
2022-12-10T01:08:40.084Z,99.68
2022-12-10T01:11:07.391Z,99.43
2022-12-10T01:13:34.141Z,99.38
2022-12-10T01:16:03.127Z,99.13
2022-12-10T01:18:29.655Z,99.45
2022-12-10T01:20:56.086Z,99.39
2022-12-10T01:23:22.511Z,99.31
2022-12-10T01:25:49.111Z,99.18
2022-12-10T01:28:15.622Z,99.31
2022-12-10T01:30:42.023Z,99.37
2022-12-10T01:33:08.449Z,99.26
2022-12-10T01:35:38.602Z,99.00
2022-12-10T01:38:05.184Z,99.41
2022-12-10T01:40:31.626Z,99.54
2022-12-10T01:43:00.444Z,99.75
2022-12-10T01:45:29.289Z,99.10
2022-12-10T01:47:55.712Z,99.61
2022-12-10T01:50:22.267Z,99.36
2022-12-10T01:52:49.439Z,99.57
2022-12-10T01:55:43.231Z,99.62
2022-12-10T01:58:10.920Z,99.71
2022-12-10T02:00:42.823Z,99.17
2022-12-10T02:03:18.384Z,99.19
2022-12-10T02:05:55.059Z,99.53
2022-12-10T02:08:31.648Z,99.76
2022-12-10T02:11:17.359Z,99.26
2022-12-10T02:13:53.259Z,99.52
2022-12-10T02:16:27.444Z,99.27
2022-12-10T02:19:38.983Z,99.87
2022-12-10T02:22:07.223Z,99.36
2022-12-10T02:24:36.628Z,99.56
2022-12-10T02:27:25.096Z,99.61
2022-12-10T02:29:54.233Z,99.30
2022-12-10T02:32:25.151Z,99.50
2022-12-10T02:34:57.527Z,99.22
2022-12-10T02:37:37.752Z,99.21
2022-12-10T02:40:10.427Z,99.32
2022-12-10T02:42:39.885Z,99.25
2022-12-10T02:45:08.798Z,99.70
2022-12-10T02:47:37.795Z,99.36
2022-12-10T02:50:05.383Z,99.21
2022-12-10T02:52:31.938Z,99.04
2022-12-10T02:54:58.512Z,99.46
2022-12-10T02:57:47.963Z,99.46
2022-12-10T03:00:20.510Z,99.41
2022-12-10T03:03:13.342Z,99.20
2022-12-10T03:06:17.536Z,99.21
2022-12-10T03:08:52.158Z,99.16
2022-12-10T03:11:22.536Z,99.17
2022-12-10T03:13:54.991Z,99.71
2022-12-10T03:16:23.550Z,99.39
2022-12-10T03:18:56.467Z,99.49
2022-12-10T03:21:24.853Z,98.93
2022-12-10T03:23:51.986Z,99.08
2022-12-10T03:26:21.063Z,99.78
2022-12-10T03:28:52.430Z,99.08
2022-12-10T03:31:20.297Z,99.17
2022-12-10T03:33:48.728Z,99.29
2022-12-10T03:36:17.676Z,99.02
2022-12-10T03:38:44.565Z,99.10
2022-12-10T03:41:11.360Z,98.77
2022-12-10T03:43:51.341Z,99.06
2022-12-10T03:46:17.800Z,98.73
2022-12-10T03:48:44.278Z,99.37
2022-12-10T03:51:10.699Z,99.22
2022-12-10T03:53:37.159Z,98.86
2022-12-10T03:56:03.785Z,99.26
2022-12-10T03:58:30.244Z,98.88
2022-12-10T04:00:56.676Z,99.02
2022-12-10T04:03:23.070Z,99.20
2022-12-10T04:05:49.468Z,98.97
2022-12-10T04:08:16.127Z,99.00
2022-12-10T04:10:42.659Z,99.44
2022-12-10T04:13:27.447Z,99.23
2022-12-10T04:16:12.251Z,98.87
2022-12-10T04:18:38.633Z,98.88
2022-12-10T04:21:23.636Z,99.53
2022-12-10T04:24:08.523Z,98.76
2022-12-10T04:26:53.306Z,99.45
2022-12-10T04:29:30.173Z,98.85
2022-12-10T04:31:57.431Z,98.75
2022-12-10T04:34:25.056Z,99.22
2022-12-10T04:36:52.294Z,98.94
2022-12-10T04:39:19.148Z,98.92
2022-12-10T04:41:48.027Z,99.22
2022-12-10T04:44:14.989Z,98.81
2022-12-10T04:46:42.970Z,98.78
2022-12-10T04:49:09.727Z,98.76
2022-12-10T04:51:36.351Z,98.67
2022-12-10T04:54:03.107Z,98.98
2022-12-10T04:56:30.035Z,98.63
2022-12-10T04:58:57.812Z,98.99
2022-12-10T05:01:24.764Z,99.07
2022-12-10T05:03:51.759Z,99.19
2022-12-10T05:06:20.195Z,99.13
2022-12-10T05:08:47.659Z,98.63
2022-12-10T05:11:17.246Z,99.11
2022-12-10T05:13:44.712Z,99.11
2022-12-10T05:16:13.845Z,98.86
2022-12-10T05:18:41.110Z,98.92
2022-12-10T05:21:11.695Z,99.09
2022-12-10T05:23:39.948Z,98.93
2022-12-10T05:26:13.875Z,99.04
2022-12-10T05:28:43.319Z,99.20
2022-12-10T05:31:21.757Z,98.54
2022-12-10T05:33:48.755Z,99.37
2022-12-10T05:36:17.754Z,98.64
2022-12-10T05:38:45.040Z,99.11
2022-12-10T05:41:19.935Z,99.10
2022-12-10T05:43:46.845Z,99.12
2022-12-10T05:46:17.075Z,98.91
2022-12-10T05:48:43.654Z,98.93
2022-12-10T05:51:16.529Z,99.13
2022-12-10T05:53:43.482Z,99.54
2022-12-10T05:56:12.775Z,98.49
2022-12-10T05:58:41.051Z,99.36
2022-12-10T06:01:19.124Z,99.36
2022-12-10T06:03:46.043Z,98.88
2022-12-10T06:06:13.575Z,98.68
2022-12-10T06:08:40.775Z,98.63
2022-12-10T06:11:10.493Z,98.90
2022-12-10T06:13:38.133Z,98.91
2022-12-10T06:16:10.323Z,98.78
2022-12-10T06:18:37.411Z,98.70
2022-12-10T06:21:09.152Z,98.89
2022-12-10T06:23:36.805Z,99.16
2022-12-10T06:26:08.358Z,98.92
2022-12-10T06:28:34.909Z,98.81
2022-12-10T06:31:01.480Z,98.98
2022-12-10T06:33:28.261Z,99.17
2022-12-10T06:35:54.703Z,99.13
2022-12-10T06:38:21.236Z,98.73
2022-12-10T06:40:47.974Z,99.04
2022-12-10T06:43:14.367Z,99.25
2022-12-10T06:45:42.205Z,99.19
2022-12-10T06:48:09.356Z,98.61
2022-12-10T06:50:36.584Z,99.29
2022-12-10T06:53:04.004Z,98.59
2022-12-10T06:55:30.746Z,99.16
2022-12-10T06:57:57.324Z,98.80
2022-12-10T07:00:23.799Z,98.87
2022-12-10T07:02:50.366Z,98.89
2022-12-10T07:05:17.571Z,99.01
2022-12-10T07:07:44.266Z,99.05
2022-12-10T07:10:11.567Z,98.76
2022-12-10T07:12:38.456Z,98.39
2022-12-10T07:15:05.632Z,98.45
2022-12-10T07:17:32.108Z,99.00
2022-12-10T07:19:58.610Z,98.71
2022-12-10T07:22:25.259Z,98.97
2022-12-10T07:24:51.852Z,98.70
2022-12-10T07:27:18.362Z,98.63
2022-12-10T07:29:45.386Z,98.54
2022-12-10T07:32:11.978Z,98.62
2022-12-10T07:34:38.528Z,98.74
2022-12-10T07:37:04.979Z,98.40
2022-12-10T07:39:31.391Z,98.82
2022-12-10T07:41:57.946Z,98.78
2022-12-10T07:44:26.821Z,98.73
2022-12-10T07:46:54.909Z,98.65
2022-12-10T07:49:21.430Z,98.63
2022-12-10T07:51:49.428Z,98.99
2022-12-10T07:54:16.804Z,99.09
2022-12-10T07:56:43.807Z,98.68
2022-12-10T07:59:10.924Z,99.02
2022-12-10T08:01:37.489Z,98.89
2022-12-10T08:04:04.229Z,98.53
2022-12-10T08:06:31.219Z,98.79
2022-12-10T08:08:59.715Z,98.59
2022-12-10T08:11:27.694Z,98.68
2022-12-10T08:13:57.289Z,98.42
2022-12-10T08:16:26.852Z,98.54
2022-12-10T08:18:54.311Z,98.72
2022-12-10T08:21:23.423Z,98.87
2022-12-10T08:23:50.084Z,98.88
2022-12-10T08:26:22.963Z,98.52
2022-12-10T08:28:50.534Z,98.56
2022-12-10T08:31:18.812Z,98.72
2022-12-10T08:33:45.617Z,98.76
2022-12-10T08:36:13.962Z,98.48
2022-12-10T08:38:41.571Z,98.97
2022-12-10T08:41:10.204Z,98.65
2022-12-10T08:43:36.705Z,98.79
2022-12-10T08:46:03.379Z,99.07
2022-12-10T08:48:30.113Z,98.51
2022-12-10T08:50:56.632Z,98.60
2022-12-10T08:53:23.691Z,98.75
2022-12-10T08:55:51.983Z,98.41
2022-12-10T08:58:18.559Z,98.70
2022-12-10T09:00:45.405Z,98.35
2022-12-10T09:03:11.951Z,98.73
2022-12-10T09:05:38.778Z,98.72
2022-12-10T09:08:05.514Z,98.65
2022-12-10T09:10:32.239Z,98.69
2022-12-10T09:13:03.098Z,98.80
2022-12-10T09:15:30.322Z,98.41
2022-12-10T09:17:56.819Z,98.84
2022-12-10T09:20:23.297Z,98.39
2022-12-10T09:22:49.976Z,98.57
2022-12-10T09:25:17.848Z,98.67
2022-12-10T09:27:45.095Z,98.45
2022-12-10T09:30:12.895Z,98.54
2022-12-10T09:32:39.495Z,98.70
2022-12-10T09:35:07.180Z,98.83
2022-12-10T09:37:33.695Z,98.32
2022-12-10T09:40:00.270Z,98.45
2022-12-10T09:42:39.767Z,98.14
2022-12-10T09:45:24.931Z,98.38
2022-12-10T09:48:45.412Z,98.28
2022-12-10T09:51:21.356Z,98.31
2022-12-10T09:53:49.717Z,98.29
2022-12-10T09:56:24.266Z,98.12
2022-12-10T09:58:50.801Z,98.28
2022-12-10T10:01:20.893Z,98.89
2022-12-10T10:03:48.967Z,98.25
2022-12-10T10:06:17.272Z,98.10
2022-12-10T10:08:47.903Z,98.33
2022-12-10T10:11:21.399Z,98.45
2022-12-10T10:13:50.433Z,98.33
2022-12-10T10:16:16.830Z,98.03
2022-12-10T10:18:47.616Z,98.52
2022-12-10T10:21:25.442Z,98.53
2022-12-10T10:23:52.983Z,98.78
2022-12-10T10:26:19.546Z,97.99
2022-12-10T10:28:47.088Z,98.09
2022-12-10T10:31:27.503Z,98.36
2022-12-10T10:34:00.379Z,97.93
2022-12-10T10:36:30.595Z,98.18
2022-12-10T10:38:57.733Z,98.16
2022-12-10T10:41:26.751Z,98.18
2022-12-10T10:44:02.807Z,98.00
2022-12-10T10:46:29.769Z,98.51
2022-12-10T10:49:33.656Z,97.96
2022-12-10T10:52:21.639Z,97.96
2022-12-10T10:54:48.996Z,97.72
2022-12-10T10:57:37.209Z,97.66
2022-12-10T11:00:09.994Z,98.28
2022-12-10T11:02:38.709Z,97.64
2022-12-10T11:05:33.643Z,97.92
2022-12-10T11:08:04.972Z,97.69
2022-12-10T11:10:32.084Z,97.61
2022-12-10T11:13:20.348Z,97.38
2022-12-10T11:15:54.592Z,97.86
2022-12-10T11:18:30.305Z,97.14
2022-12-10T11:21:17.403Z,97.38
2022-12-10T11:23:49.301Z,97.19
2022-12-10T11:26:38.196Z,97.63
2022-12-10T11:29:38.123Z,97.23
2022-12-10T11:32:32.554Z,97.47
2022-12-10T11:35:17.580Z,97.71
2022-12-10T11:38:02.352Z,97.04
2022-12-10T11:40:50.378Z,97.34
2022-12-10T11:43:34.007Z,97.13
2022-12-10T11:46:25.119Z,97.02
2022-12-10T11:49:14.084Z,97.55
2022-12-10T11:51:52.361Z,97.26
2022-12-10T11:54:28.925Z,97.04
2022-12-10T11:57:09.819Z,96.95
2022-12-10T12:00:07.677Z,96.79
2022-12-10T12:03:00.273Z,97.14
2022-12-10T12:05:52.427Z,96.83
2022-12-10T12:08:50.527Z,97.19
2022-12-10T12:11:16.868Z,96.99
2022-12-10T12:13:46.227Z,97.04
2022-12-10T12:16:20.869Z,96.97
2022-12-10T12:18:55.881Z,97.11
2022-12-10T12:21:22.379Z,97.02
2022-12-10T12:24:14.817Z,96.79
2022-12-10T12:27:02.024Z,97.16
2022-12-10T12:29:37.701Z,97.44
2022-12-10T12:32:17.980Z,97.05
2022-12-10T12:35:01.371Z,96.70
2022-12-10T12:37:39.705Z,97.19
2022-12-10T12:40:21.422Z,96.74
2022-12-10T12:42:56.939Z,97.00
2022-12-10T12:45:40.048Z,96.92
2022-12-10T12:48:21.684Z,97.03
2022-12-10T12:51:07.339Z,97.30
2022-12-10T12:53:36.044Z,97.04
2022-12-10T12:56:26.912Z,96.35
2022-12-10T12:59:37.422Z,96.39
2022-12-10T13:02:41.719Z,96.88
2022-12-10T13:05:19.363Z,96.45
2022-12-10T13:08:28.676Z,96.63
2022-12-10T13:11:36.222Z,96.99
2022-12-10T13:14:16.264Z,97.13
2022-12-10T13:16:42.598Z,96.62
2022-12-10T13:19:21.212Z,97.08
2022-12-10T13:22:04.730Z,97.24
2022-12-10T13:24:36.699Z,96.57
2022-12-10T13:27:12.010Z,97.35
2022-12-10T13:29:53.374Z,96.58
2022-12-10T13:32:32.428Z,96.86
2022-12-10T13:35:23.443Z,96.81
2022-12-10T13:37:49.823Z,97.17
2022-12-10T13:40:26.676Z,97.10
2022-12-10T13:43:38.755Z,96.94
2022-12-10T13:46:31.240Z,97.14
2022-12-10T13:49:17.003Z,96.78
2022-12-10T13:51:58.225Z,97.18
2022-12-10T13:54:57.131Z,97.27
2022-12-10T13:57:56.026Z,96.88
2022-12-10T14:00:29.141Z,96.64
2022-12-10T14:03:28.215Z,97.41
2022-12-10T14:06:20.324Z,97.03
2022-12-10T14:09:12.522Z,97.10
2022-12-10T14:11:51.991Z,97.32
2022-12-10T14:14:30.082Z,96.95
2022-12-10T14:16:57.198Z,97.22
2022-12-10T14:19:27.661Z,97.32
2022-12-10T14:21:54.341Z,96.93
2022-12-10T14:24:29.904Z,97.17
2022-12-10T14:26:59.616Z,96.61
2022-12-10T14:29:29.418Z,97.25
2022-12-10T14:31:56.918Z,97.26
2022-12-10T14:34:27.476Z,96.91
2022-12-10T14:36:57.854Z,97.41
2022-12-10T14:39:29.407Z,96.97
2022-12-10T14:41:59.681Z,97.01
2022-12-10T14:44:26.940Z,97.02
2022-12-10T14:47:07.924Z,97.36
2022-12-10T14:49:43.449Z,97.59
2022-12-10T14:52:25.516Z,97.47
2022-12-10T14:54:52.532Z,97.19
2022-12-10T14:57:34.103Z,97.38
2022-12-10T15:00:07.787Z,97.55
2022-12-10T15:02:39.693Z,97.58
2022-12-10T15:05:28.370Z,97.46
2022-12-10T15:08:01.185Z,97.52
2022-12-10T15:10:40.870Z,97.65
2022-12-10T15:13:16.782Z,97.49
2022-12-10T15:15:44.105Z,97.32
2022-12-10T15:18:13.269Z,97.51
2022-12-10T15:20:51.458Z,97.38
2022-12-10T15:23:26.810Z,97.66
2022-12-10T15:26:19.414Z,97.51
2022-12-10T15:28:47.586Z,97.38
2022-12-10T15:31:30.833Z,97.52
2022-12-10T15:33:59.744Z,97.58
2022-12-10T15:36:50.268Z,97.17
2022-12-10T15:39:25.440Z,97.80
2022-12-10T15:41:59.924Z,98.02
2022-12-10T15:44:44.928Z,98.16
2022-12-10T15:47:26.062Z,97.79
2022-12-10T15:49:56.577Z,97.60
2022-12-10T15:52:25.548Z,98.09
2022-12-10T15:54:54.478Z,97.47
2022-12-10T15:57:33.601Z,97.59
2022-12-10T16:00:07.536Z,98.12
2022-12-10T16:02:44.841Z,97.75
2022-12-10T16:05:11.206Z,98.29
2022-12-10T16:07:37.948Z,97.58
2022-12-10T16:10:05.708Z,97.92
2022-12-10T16:12:40.115Z,97.99
2022-12-10T16:15:11.829Z,97.65
2022-12-10T16:17:38.325Z,98.06
2022-12-10T16:20:23.024Z,98.14
2022-12-10T16:22:50.324Z,97.99
2022-12-10T16:25:17.414Z,97.90
2022-12-10T16:27:44.475Z,97.98
2022-12-10T16:30:17.930Z,97.88
2022-12-10T16:32:45.180Z,98.08
2022-12-10T16:35:14.931Z,98.32
2022-12-10T16:37:46.679Z,97.98
2022-12-10T16:40:14.975Z,98.34
2022-12-10T16:42:42.476Z,98.37
2022-12-10T16:45:18.443Z,98.38
2022-12-10T16:47:45.087Z,98.32
2022-12-10T16:50:12.902Z,98.43
2022-12-10T16:52:39.596Z,98.33
2022-12-10T16:55:08.635Z,98.39
2022-12-10T16:57:35.728Z,97.94
2022-12-10T17:00:02.417Z,98.48
2022-12-10T17:02:28.821Z,98.38
2022-12-10T17:04:55.385Z,98.34
2022-12-10T17:07:21.808Z,98.06
2022-12-10T17:09:48.317Z,98.48
2022-12-10T17:12:15.079Z,98.05
2022-12-10T17:14:47.326Z,98.35
2022-12-10T17:17:15.794Z,98.37
2022-12-10T17:19:43.049Z,98.53
2022-12-10T17:22:10.147Z,98.31
2022-12-10T17:24:37.332Z,98.22
2022-12-10T17:27:08.356Z,98.07
2022-12-10T17:29:39.468Z,98.18
2022-12-10T17:32:07.598Z,98.78
2022-12-10T17:34:34.089Z,98.68
2022-12-10T17:37:00.626Z,98.11
2022-12-10T17:39:29.453Z,98.55
2022-12-10T17:41:56.198Z,98.63
2022-12-10T17:44:23.095Z,98.78
2022-12-10T17:46:49.549Z,98.46
2022-12-10T17:49:16.491Z,98.57
2022-12-10T17:51:43.733Z,98.95
2022-12-10T17:54:10.261Z,98.80
2022-12-10T17:56:36.826Z,98.81
2022-12-10T17:59:03.755Z,98.63
2022-12-10T18:01:31.579Z,98.37
2022-12-10T18:03:58.191Z,98.32
2022-12-10T18:06:28.159Z,98.51
2022-12-10T18:08:57.535Z,98.53
2022-12-10T18:11:28.524Z,98.44
2022-12-10T18:13:54.984Z,98.80
2022-12-10T18:16:28.495Z,98.85
2022-12-10T18:18:55.650Z,98.80
2022-12-10T18:21:23.033Z,98.66
2022-12-10T18:23:49.903Z,98.67
2022-12-10T18:26:20.441Z,98.65
2022-12-10T18:28:56.786Z,98.87
2022-12-10T18:31:30.074Z,98.97
2022-12-10T18:34:00.069Z,98.70
2022-12-10T18:36:30.330Z,98.80
2022-12-10T18:38:59.228Z,98.71
2022-12-10T18:41:26.440Z,98.96
2022-12-10T18:43:53.163Z,99.13
2022-12-10T18:46:25.948Z,98.59
2022-12-10T18:48:52.850Z,98.87
2022-12-10T18:51:19.952Z,98.80
2022-12-10T18:53:47.569Z,99.06
2022-12-10T18:56:17.822Z,98.89
2022-12-10T18:58:45.031Z,98.97
2022-12-10T19:01:13.585Z,99.02
2022-12-10T19:03:45.015Z,98.83
2022-12-10T19:06:19.563Z,99.30
2022-12-10T19:09:17.712Z,99.08
2022-12-10T19:11:34.164Z,99.06
2022-12-10T19:14:00.679Z,98.99
2022-12-10T19:16:27.253Z,99.07
2022-12-10T19:18:55.836Z,98.67
2022-12-10T19:21:22.219Z,98.83
2022-12-10T19:23:48.666Z,99.10
2022-12-10T19:26:25.133Z,99.14
2022-12-10T19:28:52.506Z,98.91
2022-12-10T19:31:19.438Z,99.14
2022-12-10T19:33:46.581Z,99.10
2022-12-10T19:36:25.245Z,99.27
2022-12-10T19:38:53.335Z,99.05
2022-12-10T19:41:20.362Z,98.74
2022-12-10T19:43:46.822Z,99.01
2022-12-10T19:46:19.982Z,99.21
2022-12-10T19:48:47.284Z,98.79
2022-12-10T19:51:14.335Z,98.96
2022-12-10T19:53:42.565Z,99.28
2022-12-10T19:56:30.246Z,98.81
2022-12-10T19:59:02.595Z,98.76
2022-12-10T20:01:29.694Z,99.03
2022-12-10T20:03:57.214Z,99.04
2022-12-10T20:06:31.560Z,99.19
2022-12-10T20:08:59.803Z,99.13
2022-12-10T20:11:27.485Z,99.36
2022-12-10T20:13:54.093Z,99.10
2022-12-10T20:16:30.093Z,99.34
2022-12-10T20:18:58.588Z,98.95
2022-12-10T20:21:27.381Z,99.00
2022-12-10T20:23:59.619Z,99.08
2022-12-10T20:26:32.712Z,99.08
2022-12-10T20:28:59.967Z,98.85
2022-12-10T20:31:27.161Z,99.35
2022-12-10T20:33:53.881Z,99.03
2022-12-10T20:36:24.291Z,98.90
2022-12-10T20:38:51.515Z,99.23
2022-12-10T20:41:18.973Z,98.56
2022-12-10T20:43:45.559Z,99.39
2022-12-10T20:46:23.218Z,98.99
2022-12-10T20:48:50.460Z,98.96
2022-12-10T20:51:18.621Z,99.09
2022-12-10T20:53:46.192Z,99.20
2022-12-10T20:56:17.994Z,99.06
2022-12-10T20:58:45.543Z,98.56
2022-12-10T21:01:12.063Z,98.93
2022-12-10T21:03:39.076Z,99.09
2022-12-10T21:06:07.581Z,98.77
2022-12-10T21:08:34.141Z,99.08
2022-12-10T21:11:00.659Z,99.05
2022-12-10T21:13:29.612Z,99.32
2022-12-10T21:16:01.000Z,98.68
2022-12-10T21:18:28.525Z,99.01
2022-12-10T21:20:55.937Z,99.40
2022-12-10T21:23:26.225Z,99.08
2022-12-10T21:25:54.671Z,99.08
2022-12-10T21:28:22.322Z,99.22
2022-12-10T21:30:50.563Z,99.17
2022-12-10T21:33:19.404Z,99.25
2022-12-10T21:35:47.280Z,98.76
2022-12-10T21:38:14.279Z,98.99
2022-12-10T21:40:43.014Z,98.76
2022-12-10T21:43:23.837Z,98.82
2022-12-10T21:45:52.864Z,98.88
2022-12-10T21:48:22.844Z,98.79
2022-12-10T21:50:57.023Z,99.04
2022-12-10T21:53:23.501Z,99.38
2022-12-10T21:55:49.928Z,98.96
2022-12-10T21:58:16.360Z,99.01
2022-12-10T22:00:42.927Z,99.20
2022-12-10T22:03:09.546Z,98.56
2022-12-10T22:05:42.452Z,99.02
2022-12-10T22:08:09.129Z,99.00
2022-12-10T22:10:35.697Z,99.23
2022-12-10T22:13:02.232Z,98.95
2022-12-10T22:15:28.701Z,99.18
2022-12-10T22:17:55.147Z,99.04
2022-12-10T22:20:21.647Z,99.01
2022-12-10T22:22:48.115Z,99.05
2022-12-10T22:25:14.528Z,99.12
2022-12-10T22:27:41.900Z,99.19
2022-12-10T22:30:09.215Z,99.04
2022-12-10T22:32:35.745Z,99.03
2022-12-10T22:35:02.445Z,99.04
2022-12-10T22:37:28.852Z,99.05
2022-12-10T22:39:55.760Z,99.11
2022-12-10T22:42:22.277Z,99.01
2022-12-10T22:44:48.688Z,99.07
2022-12-10T22:47:15.148Z,99.35
2022-12-10T22:49:41.651Z,99.23
2022-12-10T22:52:08.055Z,99.20
2022-12-10T22:54:34.464Z,99.33
2022-12-10T22:57:01.030Z,98.74
2022-12-10T22:59:28.287Z,98.94
2022-12-10T23:01:56.828Z,98.99
2022-12-10T23:04:23.331Z,99.11
2022-12-10T23:06:50.979Z,99.16
2022-12-10T23:09:17.480Z,98.90
2022-12-10T23:12:03.852Z,99.25
2022-12-10T23:14:30.412Z,98.73
2022-12-10T23:16:56.885Z,99.30
2022-12-10T23:19:23.993Z,98.91
2022-12-10T23:21:50.480Z,98.89
2022-12-10T23:24:16.947Z,98.99
2022-12-10T23:26:44.548Z,99.18
2022-12-10T23:29:11.671Z,99.19
2022-12-10T23:31:38.465Z,99.06
2022-12-10T23:34:05.259Z,99.39
2022-12-10T23:36:31.880Z,99.06
2022-12-10T23:38:58.371Z,99.26
2022-12-10T23:41:24.791Z,99.18
2022-12-10T23:43:57.038Z,99.23
2022-12-10T23:46:24.356Z,99.03
2022-12-10T23:48:50.837Z,99.10
2022-12-10T23:51:17.360Z,99.14
2022-12-10T23:53:43.832Z,99.35
2022-12-10T23:56:16.664Z,99.51
2022-12-10T23:58:43.729Z,99.29
